• Join FlightAware (Why Join?)
  • Login
  • US Flag 
10:27AM EDT


 

Airport Tracker/Info


-or-


 

Live Flight TrackerFlight Track Log ✈ ASQ4260 ✈ 13-Jul-2013 ✈ KIAH - KCHS

Flight Track Log - Related Links

Times and Time Zones

All times are in EDT time to prevent confusion due to time zone crossing. See the ASQ4260 flight status page for this flight to view local times or setup timezone preferences in your user account.

Time Position Orientation Groundspeed Altitude Reporting Facility
EDT Latitude Longitude Course Direction KTS MPH feet Rate Location/Type
08:38AM 29.9550 -95.3394 97° East 191 220 600  Level Houston Center
08:39AM 29.9114 -95.2767 129° Southeast 220 253 2,100 1,440 Climbing Houston Center
08:40AM 29.8647 -95.2117 130° Southeast 256 295 3,900 1,980 Climbing Houston Center
08:41AM 29.9140 -94.8342 95° East  Level FlightAware Approximate
08:41AM 29.8008 -95.1247 130° Southeast 268 308 6,600  Level Houston Center
08:42AM 29.9035 -94.7084 95° East  Level FlightAware Approximate
08:42AM 29.7889 -95.0664 103° East 273 314 8,000  Level Houston Center
08:43AM 29.8908 -94.5828 97° East  Level FlightAware Approximate
08:43AM 29.7772 -94.9764 98° East 282 325 9,800  Level Houston Center
08:44AM 29.7833 -94.8844 86° East 291 335 11,200 1,440 Climbing Houston Center
08:45AM 29.7969 -94.7914 80° East 295 339 12,800 1,200 Climbing Houston Center
08:46AM 29.8139 -94.6719 81° East 318 366 13,700 960 Climbing Houston Center
08:47AM 29.8289 -94.5628 81° East 342 394 14,800 1,080 Climbing Houston Center
08:48AM 29.8436 -94.4533 81° East 345 397 16,000 1,080 Climbing Houston Center
08:49AM 29.8589 -94.3442 81° East 346 398 17,100 1,020 Climbing Houston Center
08:50AM 29.8589 -94.2322 90° East 350 403 18,100 960 Climbing Houston Center
08:51AM 29.8553 -94.1106 92° East 357 411 19,100 900 Climbing Houston Center
08:52AM 29.8586 -93.9956 88° East 361 415 20,000 900 Climbing Houston Center
08:53AM 29.8728 -93.8800 82° East 364 419 21,000 900 Climbing Houston Center
08:54AM 29.8933 -93.7678 78° East 363 418 21,900 840 Climbing Houston Center
08:55AM 29.9125 -93.6536 79° East 364 419 22,800 900 Climbing Houston Center
08:56AM 29.9356 -93.5194 79° East 361 415 23,800 780 Climbing Houston Center
08:57AM 29.9550 -93.4053 79° East 365 420 24,400 600 Climbing Houston Center
08:58AM 29.9750 -93.2906 79° East 369 425 25,100 720 Climbing Houston Center
08:59AM 29.9953 -93.1744 79° East 372 428 25,900 720 Climbing Houston Center
09:00AM 30.0153 -93.0575 79° East 375 432 26,600 720 Climbing Houston Center
09:01AM 30.0350 -92.9422 79° East 370 426 27,400 960 Climbing Houston Center
09:02AM 30.0539 -92.8286 79° East 365 420 28,600 1,320 Climbing Houston Center
09:03AM 30.0769 -92.6953 79° East 356 410 30,200 1,380 Climbing Houston Center
09:04AM 30.0944 -92.5903 79° East 340 391 31,500 1,260 Climbing Houston Center
09:05AM 30.1103 -92.4872 80° East 329 379 32,800 1,260 Climbing Houston Center
09:06AM 30.1281 -92.3878 78° East 320 368 34,100 1,020 Climbing Houston Center
09:07AM 30.1436 -92.2900 80° East 311 358 35,000 420 Climbing Houston Center
09:08AM 30.1592 -92.1894 80° East 319 367 35,000  Level Houston Center
09:09AM 30.1769 -92.0806 79° East 342 394 35,000  Level Houston Center
09:10AM 30.1975 -91.9631 79° East 367 422 35,000  Level Houston Center
09:11AM 30.2183 -91.8331 79° East 385 443 35,000  Level Houston Center
09:13AM 30.2406 -91.6917 80° East 397 457 35,000  Level Houston Center
09:14AM 30.2603 -91.5683 79° East 392 451 35,000  Level Houston Center
09:15AM 30.2792 -91.4475 80° East 386 444 35,000  Level Houston Center
09:16AM 30.2997 -91.3256 79° East 385 443 35,000  Level Houston Center
09:17AM 30.3181 -91.2042 80° East 385 443 35,000  Level Houston Center
09:18AM 30.3411 -91.0819 78° East 388 447 35,000  Level Houston Center
09:19AM 30.3614 -90.9581 79° East 391 450 35,000  Level Houston Center
09:20AM 30.3886 -90.8092 78° East 395 455 35,000  Level Houston Center
09:21AM 30.4094 -90.6861 79° East 391 450 35,000  Level Houston Center
09:22AM 30.4297 -90.5631 79° East 388 447 35,000  Level Houston Center
09:23AM 30.4514 -90.4403 78° East 389 448 35,000  Level Houston Center
09:24AM 30.4722 -90.3181 79° East 387 445 35,000  Level Houston Center
09:25AM 30.4925 -90.1964 79° East 384 442 35,000  Level Houston Center
09:26AM 30.5133 -90.0717 79° East 391 450 35,000  Level Houston Center
09:27AM 30.5344 -89.9453 79° East 395 455 35,000  Level Houston Center
09:28AM 30.5561 -89.8181 79° East 396 456 35,000  Level Houston Center
09:29AM 30.5769 -89.6889 79° East 400 460 35,000  Level Houston Center
09:30AM 30.5981 -89.5614 79° East 401 461 35,000  Level Houston Center
09:31AM 30.6219 -89.4081 80° East 400 460 35,000  Level Houston Center
09:32AM 30.6431 -89.2786 79° East 406 467 35,000  Level Houston Center
09:33AM 30.6622 -89.1483 80° East 409 471 35,000  Level Houston Center
09:34AM 30.6825 -89.0178 80° East 411 473 35,000  Level Houston Center
09:35AM 30.7031 -88.8828 80° East 414 476 35,000  Level Houston Center
09:36AM 30.7231 -88.7503 80° East 417 480 35,000  Level Houston Center
09:37AM 30.7442 -88.6208 79° East 417 480 35,000  Level Houston Center
09:38AM 30.7639 -88.4889 80° East 416 479 35,000 -60 Level Houston Center
09:39AM 30.7919 -88.3286 78° East 419 482 34,900 -60 Descending Houston Center
09:40AM 30.8078 -88.1897 82° East 429 494 34,900  Level Houston Center
09:41AM 30.8303 -88.0506 79° East 436 502 34,900  Level Houston Center
09:42AM 30.8528 -87.9103 79° East 441 507 34,900  Level Houston Center
09:43AM 30.8736 -87.7683 80° East 445 512 35,000  Climbing Houston Center
09:44AM 30.8947 -87.6319 80° East 451 519 35,000  Level Houston Center
09:45AM 30.9192 -87.4561 81° East 460 529 35,000  Level Houston Center
09:46AM 30.9406 -87.3075 80° East 466 536 35,000  Level Houston Center
09:47AM 30.9628 -87.1578 80° East 470 541 35,000  Level Houston Center
09:48AM 30.9839 -86.9992 81° East 462 532 35,000  Level Houston Center
09:49AM 31.0042 -86.8558 81° East 450 518 35,000  Level Houston Center
09:50AM 31.0228 -86.7108 81° East 451 519 35,000  Level Houston Center
09:51AM 31.0442 -86.5606 81° East 466 536 35,000  Level Houston Center
09:53AM 31.0650 -86.4106 81° East 468 539 35,000  Level Houston Center
09:54AM 31.0856 -86.2589 81° East 472 543 35,000  Level Houston Center
09:55AM 31.1078 -86.0783 82° East 468 539 35,000  Level Jacksonville Center
09:56AM 31.1261 -85.9286 82° East 463 533 35,000  Level Jacksonville Center
09:57AM 31.1486 -85.7642 81° East 468 539 35,000  Level Jacksonville Center
09:58AM 31.1706 -85.6217 80° East 473 544 35,000  Level Jacksonville Center
09:59AM 31.1903 -85.4742 81° East 473 544 35,000  Level Jacksonville Center
10:00AM 31.2078 -85.3239 82° East 468 539 35,000  Level Jacksonville Center
10:01AM 31.2275 -85.1739 81° East 468 539 35,000  Level Jacksonville Center
10:02AM 31.2469 -85.0117 82° East 463 533 35,000  Level Jacksonville Center
10:03AM 31.2658 -84.8636 81° East 463 533 35,000  Level Jacksonville Center
10:04AM 31.2850 -84.7158 81° East 463 533 35,000  Level Jacksonville Center
10:05AM 31.3017 -84.5653 83° East 463 533 35,000  Level Jacksonville Center
10:06AM 31.3200 -84.4175 82° East 463 533 35,000  Level Jacksonville Center
10:07AM 31.3386 -84.2644 82° East 463 533 35,000  Level Jacksonville Center
10:08AM 31.3547 -84.1186 83° East 463 533 35,000  Level Jacksonville Center
10:09AM 31.3728 -83.9706 82° East 463 533 35,000  Level Jacksonville Center
10:10AM 31.3886 -83.8197 83° East 463 533 35,000 -180 Level Jacksonville Center
10:11AM 31.4061 -83.6739 82° East 463 533 34,700 -720 Descending Jacksonville Center
10:12AM 31.4217 -83.5256 83° East 463 533 33,600 -900 Descending Jacksonville Center
10:13AM 31.4369 -83.3819 83° East 458 527 33,000 -300 Descending Jacksonville Center
10:14AM 31.4561 -83.2336 81° East 453 521 33,000  Level Jacksonville Center
10:15AM 31.4733 -83.0875 82° East 453 521 33,000 -300 Level Jacksonville Center
10:16AM 31.4900 -82.9389 82° East 453 521 32,400 -1,020 Descending Jacksonville Center
10:17AM 31.5047 -82.7878 83° East 463 533 31,000 -1,440 Descending Jacksonville Center
10:18AM 31.5211 -82.6414 82° East 463 533 29,600 -1,020 Descending Jacksonville Center
10:19AM 31.5417 -82.4978 80° East 458 527 29,000 -900 Descending Jacksonville Center
10:20AM 31.6017 -82.3656 62° Northeast 439 505 27,800 -1,320 Descending Jacksonville Center
10:21AM 31.6658 -82.2358 60° Northeast 456 525 26,400 -1,320 Descending Jacksonville Center
10:22AM 31.7194 -82.1183 62° Northeast 462 532 25,200 -1,200 Descending Jacksonville Center
10:23AM 31.7875 -81.9736 61° Northeast 456 525 24,000 -600 Descending Jacksonville Center
10:24AM 31.8469 -81.8458 61° Northeast 442 509 24,000 -300 Level Jacksonville Center
10:25AM 31.9022 -81.7303 61° Northeast 437 503 23,500 -720 Descending Jacksonville Center
10:26AM 31.9678 -81.5897 61° Northeast 447 514 22,600 -840 Descending Jacksonville Center
10:27AM 32.0228 -81.4714 61° Northeast 447 514 21,900 -840 Descending Jacksonville Center
10:28AM 32.1006 -81.3328 56° Northeast 453 521 21,000 -900 Descending Jacksonville Center
10:29AM 32.1681 -81.2139 56° Northeast 442 509 20,200 -840 Descending Jacksonville Center
10:30AM 32.2394 -81.0972 54° Northeast 436 502 19,400 -780 Descending Jacksonville Center
10:31AM 32.3067 -80.9853 55° Northeast 431 496 18,700 -1,140 Descending Jacksonville Center
10:32AM 32.3656 -80.8831 56° Northeast 431 496 17,200 -1,800 Descending Jacksonville Center
10:33AM 32.4367 -80.7583 56° Northeast 425 489 15,200 -2,040 Descending Jacksonville Center
10:34AM 32.4975 -80.6511 56° Northeast 401 461 13,200 -2,100 Descending Jacksonville Center
10:35AM 32.5542 -80.5586 54° Northeast 349 402 11,100 -1,620 Descending Jacksonville Center
10:36AM 32.6006 -80.4736 57° Northeast 327 376 10,000 -1,080 Descending Jacksonville Center
10:37AM 32.6300 -80.3814 69° East 294 338 9,000 -960 Descending Jacksonville Center
10:38AM 32.6517 -80.3044 71° East 270 311 8,100 -1,200 Descending Jacksonville Center
10:39AM 32.7031 -80.2708 29° Northeast 227 261 6,700 -1,740 Descending Jacksonville Center
10:40AM 32.7631 -80.2469 19° North 220 253 4,700 -2,100 Descending Jacksonville Center
10:41AM 32.7369 -80.1908 119° Southeast 145 167 2,600 -1,560 Descending Jacksonville Center
10:42AM 32.7294 -80.1392 100° East 145 167 1,600 -1,020 Descending Jacksonville Center